createdAt,value
2018-01-28T00:01:25.154Z,81.53
2018-01-28T00:03:55.879Z,81.79
2018-01-28T00:06:26.845Z,81.90
2018-01-28T00:08:57.179Z,81.83
2018-01-28T00:11:29.386Z,81.89
2018-01-28T00:13:59.202Z,81.96
2018-01-28T00:16:29.901Z,81.79
2018-01-28T00:19:01.257Z,81.22
2018-01-28T00:21:32.012Z,80.77
2018-01-28T00:24:02.910Z,80.56
2018-01-28T00:26:33.346Z,80.68
2018-01-28T00:29:03.813Z,81.00
2018-01-28T00:31:34.470Z,80.74
2018-01-28T00:34:05.187Z,80.97
2018-01-28T00:36:36.207Z,80.77
2018-01-28T00:39:07.563Z,80.79
2018-01-28T00:41:39.112Z,81.03
2018-01-28T00:44:09.650Z,81.20
2018-01-28T00:46:40.760Z,81.10
2018-01-28T00:49:11.648Z,81.12
2018-01-28T00:51:42.071Z,80.71
2018-01-28T00:54:13.673Z,80.76
2018-01-28T00:56:45.236Z,80.72
2018-01-28T00:59:15.865Z,80.87
2018-01-28T01:01:46.753Z,80.73
2018-01-28T01:04:17.677Z,80.55
2018-01-28T01:06:48.824Z,80.56
2018-01-28T01:09:19.678Z,80.76
2018-01-28T01:11:50.340Z,80.62
2018-01-28T01:14:20.885Z,80.75
2018-01-28T01:16:51.825Z,80.38
2018-01-28T01:19:22.729Z,80.44
2018-01-28T01:21:53.704Z,80.21
2018-01-28T01:24:24.628Z,80.11
2018-01-28T01:26:56.166Z,79.90
2018-01-28T01:29:27.090Z,79.61
2018-01-28T01:31:58.075Z,79.91
2018-01-28T01:34:29.003Z,79.93
2018-01-28T01:36:59.255Z,79.43
2018-01-28T01:39:30.900Z,79.24
2018-01-28T01:42:01.837Z,79.24
2018-01-28T01:44:32.742Z,79.47
2018-01-28T01:47:03.941Z,79.53
2018-01-28T01:49:36.815Z,79.79
2018-01-28T01:52:06.469Z,79.89
2018-01-28T01:54:36.895Z,79.97
2018-01-28T01:57:07.830Z,79.63
2018-01-28T01:59:38.671Z,79.58
2018-01-28T02:02:09.404Z,79.62
2018-01-28T02:04:40.913Z,79.54
2018-01-28T02:07:11.843Z,79.71
2018-01-28T02:09:42.743Z,79.97
2018-01-28T02:12:13.743Z,80.08
2018-01-28T02:14:44.638Z,79.69
2018-01-28T02:17:15.655Z,79.73
2018-01-28T02:19:46.255Z,79.78
2018-01-28T02:22:17.026Z,79.79
2018-01-28T02:24:47.253Z,79.58
2018-01-28T02:27:17.359Z,79.42
2018-01-28T02:29:49.128Z,79.46
2018-01-28T02:32:19.943Z,79.43
2018-01-28T02:34:50.865Z,79.53
2018-01-28T02:37:21.857Z,79.67
2018-01-28T02:39:52.828Z,79.61
2018-01-28T02:42:23.794Z,79.55
2018-01-28T02:44:54.684Z,79.78
2018-01-28T02:47:25.638Z,79.86
2018-01-28T02:49:56.528Z,79.83
2018-01-28T02:52:27.958Z,80.15
2018-01-28T02:54:58.713Z,80.19
2018-01-28T02:57:29.359Z,80.18
2018-01-28T03:00:00.264Z,80.14
2018-01-28T03:02:32.019Z,80.04
2018-01-28T03:05:02.848Z,80.33
2018-01-28T03:07:33.790Z,80.20
2018-01-28T03:10:04.027Z,80.33
2018-01-28T03:12:35.084Z,80.21
2018-01-28T03:15:05.919Z,80.28
2018-01-28T03:17:36.847Z,80.24
2018-01-28T03:20:07.726Z,80.36
2018-01-28T03:22:38.680Z,80.00
2018-01-28T03:25:09.579Z,79.87
2018-01-28T03:27:40.937Z,80.02
2018-01-28T03:30:11.932Z,79.92
2018-01-28T03:32:42.827Z,80.12
2018-01-28T03:35:13.606Z,79.83
2018-01-28T03:37:44.607Z,79.90
2018-01-28T03:40:16.027Z,79.64
2018-01-28T03:42:46.960Z,79.67
2018-01-28T03:45:19.074Z,79.66
2018-01-28T03:47:49.710Z,79.27
2018-01-28T03:50:19.958Z,79.25
2018-01-28T03:52:51.037Z,79.52
2018-01-28T03:55:21.891Z,79.53
2018-01-28T03:57:52.900Z,79.73
2018-01-28T04:00:23.773Z,79.62
2018-01-28T04:02:54.365Z,79.57
2018-01-28T04:05:24.891Z,79.82
2018-01-28T04:07:55.850Z,79.82
2018-01-28T04:10:26.767Z,79.54
2018-01-28T04:12:57.733Z,79.68
2018-01-28T04:15:28.634Z,79.42
2018-01-28T04:17:59.069Z,79.39
2018-01-28T04:20:29.848Z,79.34
2018-01-28T04:23:00.815Z,79.40
2018-01-28T04:25:31.711Z,79.22
2018-01-28T04:28:02.338Z,79.19
2018-01-28T04:30:33.828Z,79.07
2018-01-28T04:33:04.431Z,78.99
2018-01-28T04:35:34.975Z,78.33
2018-01-28T04:38:05.920Z,78.42
2018-01-28T04:40:36.479Z,78.31
2018-01-28T04:43:07.015Z,77.82
2018-01-28T04:45:37.907Z,77.51
2018-01-28T04:48:08.851Z,77.20
2018-01-28T04:50:39.735Z,77.05
2018-01-28T04:53:10.750Z,76.82
2018-01-28T04:55:41.640Z,76.48
2018-01-28T04:58:12.636Z,76.31
2018-01-28T05:00:43.141Z,76.04
2018-01-28T05:03:14.032Z,75.97
2018-01-28T05:05:44.969Z,75.98
2018-01-28T05:08:15.940Z,75.75
2018-01-28T05:10:46.887Z,75.89
2018-01-28T05:13:17.742Z,75.97
2018-01-28T05:15:48.854Z,75.86
2018-01-28T05:18:19.833Z,75.70
2018-01-28T05:20:50.596Z,75.85
2018-01-28T05:23:21.306Z,75.51
2018-01-28T05:25:52.460Z,75.37
2018-01-28T05:28:23.927Z,75.24
2018-01-28T05:30:54.509Z,75.11
2018-01-28T05:33:25.024Z,74.87
2018-01-28T05:35:55.912Z,75.11
2018-01-28T05:38:26.875Z,74.80
2018-01-28T05:40:57.740Z,74.92
2018-01-28T05:43:28.694Z,74.96
2018-01-28T05:45:59.576Z,74.38
2018-01-28T05:48:31.212Z,74.52
2018-01-28T05:51:02.019Z,74.23
2018-01-28T05:53:32.974Z,74.26
2018-01-28T05:56:03.834Z,74.31
2018-01-28T05:58:34.823Z,74.18
2018-01-28T06:01:05.388Z,74.35
2018-01-28T06:03:36.247Z,74.45
2018-01-28T06:06:06.909Z,73.95
2018-01-28T06:08:37.877Z,73.85
2018-01-28T06:11:08.780Z,73.32
2018-01-28T06:13:39.741Z,73.17
2018-01-28T06:16:10.658Z,73.05
2018-01-28T06:18:41.699Z,73.29
2018-01-28T06:21:12.452Z,72.64
2018-01-28T06:23:44.120Z,73.01
2018-01-28T06:26:14.547Z,72.47
2018-01-28T06:28:45.791Z,72.62
2018-01-28T06:31:16.687Z,72.84
2018-01-28T06:33:47.651Z,72.94
2018-01-28T06:36:18.644Z,73.23
2018-01-28T06:38:49.043Z,73.17
2018-01-28T06:41:19.868Z,73.40
2018-01-28T06:43:50.827Z,73.21
2018-01-28T06:46:21.724Z,72.90
2018-01-28T06:48:52.666Z,72.67
2018-01-28T06:51:24.135Z,72.49
2018-01-28T06:53:55.044Z,72.16
2018-01-28T06:56:25.979Z,72.14
2018-01-28T06:58:57.006Z,72.26
2018-01-28T07:01:27.626Z,72.21
2018-01-28T07:03:58.291Z,72.26
2018-01-28T07:06:28.890Z,72.25
2018-01-28T07:08:59.486Z,72.01
2018-01-28T07:11:29.935Z,72.12
2018-01-28T07:14:00.879Z,72.45
2018-01-28T07:16:31.435Z,72.64
2018-01-28T07:19:02.066Z,72.17
2018-01-28T07:21:32.878Z,72.49
2018-01-28T07:24:03.832Z,72.32
2018-01-28T07:26:34.719Z,72.01
2018-01-28T07:29:05.663Z,72.02
2018-01-28T07:31:36.596Z,72.67
2018-01-28T07:34:07.986Z,72.47
2018-01-28T07:36:38.904Z,72.44
2018-01-28T07:39:09.875Z,72.53
2018-01-28T07:41:40.767Z,72.63
2018-01-28T07:44:11.419Z,72.76
2018-01-28T07:46:42.958Z,72.65
2018-01-28T07:49:13.917Z,72.19
2018-01-28T07:51:44.468Z,73.15
2018-01-28T07:54:14.946Z,73.77
2018-01-28T07:56:45.828Z,74.06
2018-01-28T07:59:17.040Z,75.01
2018-01-28T08:01:47.468Z,76.00
2018-01-28T08:04:19.121Z,76.37
2018-01-28T08:06:49.434Z,76.60
2018-01-28T08:09:19.848Z,77.32
2018-01-28T08:11:55.617Z,78.25
2018-01-28T08:14:35.543Z,78.34
2018-01-28T08:17:05.022Z,78.45
2018-01-28T08:19:34.050Z,78.71
2018-01-28T08:22:03.487Z,78.77
2018-01-28T08:24:32.522Z,79.16
2018-01-28T08:27:01.545Z,79.18
2018-01-28T08:29:31.554Z,78.91
2018-01-28T08:32:01.032Z,79.49
2018-01-28T08:34:30.718Z,79.72
2018-01-28T08:37:01.369Z,79.93
2018-01-28T08:39:31.785Z,80.03
2018-01-28T08:42:02.742Z,79.79
2018-01-28T08:44:33.637Z,79.47
2018-01-28T08:47:04.900Z,79.15
2018-01-28T08:49:35.905Z,79.13
2018-01-28T08:52:06.945Z,79.08
2018-01-28T08:54:37.844Z,79.30
2018-01-28T08:57:08.835Z,79.50
2018-01-28T08:59:39.723Z,78.98
2018-01-28T09:02:10.671Z,78.55
2018-01-28T09:04:41.582Z,78.60
2018-01-28T09:07:12.591Z,77.92
2018-01-28T09:09:42.931Z,77.24
2018-01-28T09:12:13.844Z,77.23
2018-01-28T09:14:44.894Z,77.07
2018-01-28T09:17:15.844Z,77.16
2018-01-28T09:19:46.739Z,77.01
2018-01-28T09:22:17.688Z,76.65
2018-01-28T09:24:48.149Z,76.27
2018-01-28T09:27:18.579Z,76.56
2018-01-28T09:29:49.272Z,76.32
2018-01-28T09:32:20.198Z,76.17
2018-01-28T09:34:51.489Z,76.28
2018-01-28T09:37:22.199Z,76.13
2018-01-28T09:39:53.556Z,76.64
2018-01-28T09:42:24.576Z,76.81
2018-01-28T09:44:55.513Z,76.63
2018-01-28T09:47:25.942Z,76.95
2018-01-28T09:49:56.825Z,76.90
2018-01-28T09:52:27.833Z,76.80
2018-01-28T09:54:58.692Z,76.59
2018-01-28T09:57:29.626Z,76.66
2018-01-28T10:00:00.629Z,77.12
2018-01-28T10:02:31.679Z,76.94
2018-01-28T10:05:02.985Z,77.07
2018-01-28T10:07:34.143Z,77.25
2018-01-28T10:10:05.063Z,77.02
2018-01-28T10:12:36.032Z,76.81
2018-01-28T10:15:05.892Z,77.15
2018-01-28T10:17:36.599Z,77.70
2018-01-28T10:20:07.349Z,78.00
2018-01-28T10:22:38.940Z,78.03
2018-01-28T10:25:09.818Z,77.55
2018-01-28T10:27:40.881Z,76.88
2018-01-28T10:30:11.775Z,76.18
2018-01-28T10:32:42.695Z,76.33
2018-01-28T10:35:13.532Z,75.43
2018-01-28T10:37:44.963Z,75.36
2018-01-28T10:40:15.804Z,75.01
2018-01-28T10:42:46.710Z,75.24
2018-01-28T10:45:17.541Z,74.87
2018-01-28T10:47:47.942Z,75.20
2018-01-28T10:50:18.813Z,74.99
2018-01-28T10:52:49.721Z,75.42
2018-01-28T10:55:20.932Z,75.51
2018-01-28T10:57:51.847Z,77.48
2018-01-28T11:00:22.706Z,75.52
2018-01-28T11:02:53.618Z,75.67
2018-01-28T11:05:24.562Z,75.55
2018-01-28T11:07:56.095Z,75.83
2018-01-28T11:10:26.947Z,75.91
2018-01-28T11:12:57.978Z,76.07
2018-01-28T11:15:28.473Z,76.05
2018-01-28T11:17:58.979Z,76.22
2018-01-28T11:20:29.831Z,76.35
2018-01-28T11:23:00.629Z,76.61
2018-01-28T11:25:31.222Z,75.90
2018-01-28T11:28:01.951Z,76.05
2018-01-28T11:30:32.839Z,76.33
2018-01-28T11:33:03.786Z,76.71
2018-01-28T11:35:34.631Z,76.70
2018-01-28T11:38:05.757Z,76.74
2018-01-28T11:40:36.679Z,77.15
2018-01-28T11:43:07.818Z,77.43
2018-01-28T11:45:38.693Z,77.00
2018-01-28T11:48:09.244Z,77.27
2018-01-28T11:50:39.929Z,77.17
2018-01-28T11:53:10.880Z,77.10
2018-01-28T11:55:41.399Z,77.24
2018-01-28T11:58:12.005Z,77.01
2018-01-28T12:00:42.946Z,77.12
2018-01-28T12:03:13.852Z,77.29
2018-01-28T12:05:44.741Z,77.46
2018-01-28T12:08:15.707Z,77.50
2018-01-28T12:10:46.592Z,77.24
2018-01-28T12:13:17.619Z,76.96
2018-01-28T12:15:48.990Z,76.78
2018-01-28T12:18:19.847Z,76.75
2018-01-28T12:20:50.715Z,76.79
2018-01-28T12:23:21.314Z,76.83
2018-01-28T12:25:52.286Z,76.51
2018-01-28T12:28:23.070Z,76.28
2018-01-28T12:30:53.830Z,76.20
2018-01-28T12:33:24.705Z,75.55
2018-01-28T12:35:55.624Z,75.27
2018-01-28T12:38:26.610Z,74.79
2018-01-28T12:40:57.296Z,74.27
2018-01-28T12:43:28.927Z,74.15
2018-01-28T12:45:59.886Z,73.53
2018-01-28T12:48:30.798Z,73.94
2018-01-28T12:51:01.672Z,73.83
2018-01-28T12:53:32.084Z,72.80
2018-01-28T12:56:02.832Z,72.57
2018-01-28T12:58:33.765Z,72.32
2018-01-28T13:01:04.716Z,71.62
2018-01-28T13:03:35.756Z,71.98
2018-01-28T13:06:06.685Z,71.63
2018-01-28T13:08:37.662Z,70.71
2018-01-28T13:11:08.959Z,71.20
2018-01-28T13:13:39.767Z,71.64
2018-01-28T13:16:10.655Z,70.76
2018-01-28T13:18:41.273Z,70.35
2018-01-28T13:21:11.911Z,69.83
2018-01-28T13:23:42.900Z,69.08
2018-01-28T13:26:13.420Z,68.83
2018-01-28T13:28:44.177Z,68.68
2018-01-28T13:31:14.951Z,68.83
2018-01-28T13:33:45.904Z,68.72
2018-01-28T13:36:16.857Z,69.43
2018-01-28T13:38:47.799Z,69.24
2018-01-28T13:41:18.667Z,69.40
2018-01-28T13:43:49.686Z,69.56
2018-01-28T13:46:20.605Z,69.44
2018-01-28T13:48:51.068Z,69.25
2018-01-28T13:51:21.797Z,69.24
2018-01-28T13:53:52.911Z,69.27
2018-01-28T13:56:23.815Z,69.63
2018-01-28T13:58:54.747Z,69.66
2018-01-28T14:01:25.672Z,69.76
2018-01-28T14:03:56.785Z,69.68
2018-01-28T14:06:27.669Z,69.84
2018-01-28T14:08:59.131Z,69.27
2018-01-28T14:11:29.488Z,69.37
2018-01-28T14:14:00.229Z,69.92
2018-01-28T14:16:30.584Z,69.87
2018-01-28T14:19:00.864Z,69.84
2018-01-28T14:21:31.797Z,69.82
2018-01-28T14:24:02.711Z,70.01
2018-01-28T14:26:33.594Z,70.00
2018-01-28T14:29:04.868Z,70.28
2018-01-28T14:31:35.244Z,69.83
2018-01-28T14:34:06.489Z,69.62
2018-01-28T14:36:36.226Z,70.03
2018-01-28T14:39:06.930Z,69.98
2018-01-28T14:41:37.792Z,70.06
2018-01-28T14:44:08.627Z,70.00
2018-01-28T14:46:39.617Z,70.20
2018-01-28T14:49:10.603Z,71.35
2018-01-28T14:51:41.468Z,72.10
2018-01-28T14:54:13.271Z,72.71
2018-01-28T14:56:43.747Z,72.80
2018-01-28T14:59:14.695Z,73.57
2018-01-28T15:01:45.599Z,73.20
2018-01-28T15:04:16.585Z,72.96
2018-01-28T15:06:46.990Z,72.45
2018-01-28T15:09:17.959Z,71.79
2018-01-28T15:11:48.862Z,71.65
2018-01-28T15:14:28.790Z,71.57
2018-01-28T15:16:58.221Z,71.57
2018-01-28T15:19:27.382Z,71.54
2018-01-28T15:21:56.594Z,70.89
2018-01-28T15:24:26.036Z,70.74
2018-01-28T15:26:55.191Z,69.88
2018-01-28T15:29:25.763Z,69.98
2018-01-28T15:31:56.261Z,69.06
2018-01-28T15:34:26.963Z,69.26
2018-01-28T15:36:57.976Z,69.03
2018-01-28T15:39:29.002Z,69.13
2018-01-28T15:41:59.933Z,68.93
2018-01-28T15:44:30.806Z,68.96
2018-01-28T15:47:01.795Z,69.28
2018-01-28T15:49:32.664Z,69.19
2018-01-28T15:52:03.675Z,68.77
2018-01-28T15:54:34.532Z,68.91
2018-01-28T15:57:05.876Z,68.81
2018-01-28T15:59:36.625Z,68.65
2018-01-28T16:02:06.909Z,68.97
2018-01-28T16:04:37.384Z,68.64
2018-01-28T16:07:08.846Z,69.15
2018-01-28T16:09:39.942Z,69.01
2018-01-28T16:12:10.852Z,69.17
2018-01-28T16:14:41.360Z,69.00
2018-01-28T16:17:12.004Z,68.95
2018-01-28T16:19:42.896Z,68.67
2018-01-28T16:22:13.840Z,68.96
2018-01-28T16:24:44.981Z,68.62
2018-01-28T16:27:15.389Z,68.71
2018-01-28T16:29:46.915Z,68.58
2018-01-28T16:32:17.876Z,68.92
2018-01-28T16:34:48.812Z,69.04
2018-01-28T16:37:19.829Z,68.92
2018-01-28T16:39:50.807Z,68.65
2018-01-28T16:42:21.738Z,68.42
2018-01-28T16:44:52.623Z,68.66
2018-01-28T16:47:23.485Z,68.29
2018-01-28T16:49:54.944Z,68.24
2018-01-28T16:52:25.866Z,68.01
2018-01-28T16:54:56.818Z,68.09
2018-01-28T16:57:27.591Z,68.09
2018-01-28T16:59:58.637Z,68.20
2018-01-28T17:02:29.562Z,68.04
2018-01-28T17:05:00.212Z,68.01
2018-01-28T17:07:31.897Z,67.54
2018-01-28T17:10:02.466Z,67.73
2018-01-28T17:12:32.981Z,67.72
2018-01-28T17:15:03.892Z,67.92
2018-01-28T17:17:34.814Z,67.57
2018-01-28T17:20:05.559Z,67.60
2018-01-28T17:22:36.557Z,67.69
2018-01-28T17:25:08.063Z,67.41
2018-01-28T17:27:38.898Z,67.59
2018-01-28T17:30:09.846Z,67.84
2018-01-28T17:32:40.349Z,67.74
2018-01-28T17:35:15.468Z,67.94
2018-01-28T17:37:44.761Z,67.94
2018-01-28T17:40:13.949Z,68.45
2018-01-28T17:42:56.975Z,68.05
2018-01-28T17:45:26.422Z,68.10
2018-01-28T17:47:55.977Z,68.36
2018-01-28T17:53:28.172Z,68.52
2018-01-28T17:58:52.885Z,68.48
2018-01-28T18:01:21.892Z,68.38
2018-01-28T18:03:50.767Z,68.38
2018-01-28T18:06:19.906Z,68.13
2018-01-28T18:08:48.774Z,68.35
2018-01-28T18:11:17.748Z,68.05
2018-01-28T18:13:46.997Z,68.29
2018-01-28T18:16:15.911Z,68.45
2018-01-28T18:18:45.059Z,68.27
2018-01-28T18:21:14.118Z,68.37
2018-01-28T18:23:43.036Z,68.33
2018-01-28T18:26:11.955Z,68.45
2018-01-28T18:28:40.967Z,68.48
2018-01-28T18:31:11.567Z,68.55
2018-01-28T18:33:41.901Z,68.48
2018-01-28T18:36:10.924Z,68.43
2018-01-28T18:38:39.985Z,68.02
2018-01-28T18:41:09.353Z,67.84
2018-01-28T18:43:38.446Z,67.97
2018-01-28T18:46:07.576Z,67.86
2018-01-28T18:48:37.025Z,67.90
2018-01-28T18:51:06.127Z,67.94
2018-01-28T18:53:35.200Z,67.89
2018-01-28T18:56:04.434Z,67.74
2018-01-28T18:58:33.843Z,67.69
2018-01-28T19:01:03.338Z,67.32
2018-01-28T19:03:32.662Z,67.13
2018-01-28T19:06:02.053Z,66.62
2018-01-28T19:08:31.132Z,66.70
2018-01-28T19:11:00.528Z,66.72
2018-01-28T19:13:30.191Z,66.53
2018-01-28T19:15:59.437Z,66.31
2018-01-28T19:18:28.784Z,66.22
2018-01-28T19:20:58.481Z,66.36
2018-01-28T19:23:27.798Z,66.54
2018-01-28T19:25:57.214Z,66.59
2018-01-28T19:28:26.521Z,66.76
2018-01-28T19:30:56.142Z,66.82
2018-01-28T19:33:27.276Z,66.94
2018-01-28T19:35:56.726Z,68.75
2018-01-28T19:38:26.248Z,67.44
2018-01-28T19:40:55.716Z,67.61
2018-01-28T19:43:25.262Z,67.08
2018-01-28T19:45:55.801Z,65.20
2018-01-28T19:48:26.526Z,64.86
2018-01-28T19:50:57.678Z,64.62
2018-01-28T19:53:29.454Z,63.14
2018-01-28T19:55:59.940Z,64.50
2018-01-28T19:58:29.689Z,64.24
2018-01-28T20:01:00.877Z,63.58
2018-01-28T20:03:32.391Z,62.48
2018-01-28T20:06:01.834Z,63.65
2018-01-28T20:08:32.850Z,64.40
2018-01-28T20:11:04.685Z,64.74
2018-01-28T20:13:35.264Z,65.13
2018-01-28T20:16:07.405Z,65.56
2018-01-28T20:18:36.648Z,65.27
2018-01-28T20:21:07.730Z,65.69
2018-01-28T20:23:38.412Z,66.01
2018-01-28T20:26:14.880Z,66.18
2018-01-28T20:28:44.136Z,66.16
2018-01-28T20:31:13.301Z,66.01
2018-01-28T20:33:44.323Z,66.00
2018-01-28T20:36:13.264Z,66.37
2018-01-28T20:38:42.866Z,66.05
2018-01-28T20:41:12.424Z,66.63
2018-01-28T20:43:43.033Z,66.73
2018-01-28T20:46:13.888Z,66.55
2018-01-28T20:48:45.668Z,67.05
2018-01-28T20:51:16.511Z,67.19
2018-01-28T20:53:46.971Z,66.70
2018-01-28T20:56:18.052Z,66.72
2018-01-28T20:58:48.903Z,66.73
2018-01-28T21:01:20.268Z,66.30
2018-01-28T21:03:50.515Z,66.58
2018-01-28T21:06:21.550Z,66.87
2018-01-28T21:08:51.679Z,66.64
2018-01-28T21:11:22.888Z,66.90
2018-01-28T21:13:54.973Z,66.90
2018-01-28T21:16:26.595Z,66.70
2018-01-28T21:18:58.033Z,66.45
2018-01-28T21:21:28.399Z,66.26
2018-01-28T21:23:58.355Z,66.30
2018-01-28T21:26:28.947Z,66.23
2018-01-28T21:29:00.656Z,66.33
2018-01-28T21:31:31.252Z,65.81
2018-01-28T21:34:01.941Z,65.43
2018-01-28T21:36:32.893Z,65.69
2018-01-28T21:39:03.457Z,65.68
2018-01-28T21:41:34.905Z,65.46
2018-01-28T21:44:05.906Z,65.54
2018-01-28T21:46:36.789Z,65.59
2018-01-28T21:49:07.125Z,65.47
2018-01-28T21:51:37.733Z,65.33
2018-01-28T21:54:08.330Z,65.36
2018-01-28T21:56:41.015Z,64.96
2018-01-28T21:59:11.807Z,65.17
2018-01-28T22:01:42.705Z,65.17
2018-01-28T22:04:13.207Z,65.32
2018-01-28T22:06:44.245Z,65.57
2018-01-28T22:09:15.715Z,65.39
2018-01-28T22:11:46.297Z,65.44
2018-01-28T22:14:16.862Z,65.44
2018-01-28T22:16:47.750Z,65.37
2018-01-28T22:19:18.277Z,64.96
2018-01-28T22:21:48.967Z,65.42
2018-01-28T22:24:19.794Z,65.84
2018-01-28T22:26:50.701Z,65.61
2018-01-28T22:29:21.244Z,65.57
2018-01-28T22:31:52.959Z,65.70
2018-01-28T22:34:23.801Z,65.95
2018-01-28T22:36:54.725Z,65.89
2018-01-28T22:39:25.560Z,66.06
2018-01-28T22:41:56.178Z,66.23
2018-01-28T22:44:26.537Z,66.13
2018-01-28T22:46:56.943Z,65.98
2018-01-28T22:49:27.422Z,66.13
2018-01-28T22:51:57.810Z,66.53
2018-01-28T22:54:29.095Z,66.46
2018-01-28T22:57:00.013Z,66.57
2018-01-28T22:59:30.468Z,66.58
2018-01-28T23:02:01.271Z,66.29
2018-01-28T23:04:31.958Z,66.69
2018-01-28T23:07:02.907Z,66.92
2018-01-28T23:09:33.769Z,67.08
2018-01-28T23:12:04.984Z,66.93
2018-01-28T23:14:35.792Z,67.13
2018-01-28T23:17:06.459Z,67.54
2018-01-28T23:19:36.907Z,67.82
2018-01-28T23:22:07.807Z,67.86
2018-01-28T23:24:38.645Z,68.31
2018-01-28T23:27:09.603Z,68.32
2018-01-28T23:29:40.251Z,68.41
2018-01-28T23:32:10.946Z,68.81
2018-01-28T23:34:42.343Z,68.96
2018-01-28T23:37:12.973Z,69.22
2018-01-28T23:39:44.453Z,69.31
2018-01-28T23:42:15.112Z,69.78
2018-01-28T23:44:45.968Z,69.95
2018-01-28T23:47:16.487Z,70.21
2018-01-28T23:49:46.868Z,70.43
2018-01-28T23:52:17.783Z,70.83
2018-01-28T23:54:48.645Z,70.85
2018-01-28T23:57:19.846Z,70.97
2018-01-28T23:59:51.769Z,71.16
